Terminal Aerodrome Forecast
Issued by NWS Grand Forks, ND

Home | Current Version | Previous Version | Graphics & Text | Print | Product List | Glossary On
Versions: 1 2 3 4 5 6 7 8 9 10 11 12 13 14 15 16 17 18 19
260
FTUS43 KFGF 191137
TAFFAR
TAF
KFAR 191137Z 1912/2012 19005KT P6SM BKN200
     FM191300 19006KT P6SM SCT250
     FM191700 22007KT P6SM FEW250
     FM191900 25007KT P6SM FEW250
     FM200100 17004KT P6SM FEW250
     FM201000 18008KT P6SM FEW200=

USA.gov is the U.S. government's official web portal to all federal, state and local government web resources and services.